createdAt,value
2019-05-10T00:00:06.913Z,1000.83
2019-05-10T00:01:06.879Z,1000.78
2019-05-10T00:02:06.900Z,1000.86
2019-05-10T00:03:06.861Z,1000.82
2019-05-10T00:04:06.846Z,1000.82
2019-05-10T00:05:06.853Z,1000.81
2019-05-10T00:06:06.825Z,1000.80
2019-05-10T00:07:06.824Z,1000.88
2019-05-10T00:08:06.803Z,1000.84
2019-05-10T00:09:06.793Z,1000.82
2019-05-10T00:10:07.414Z,1000.88
2019-05-10T00:11:06.782Z,1000.86
2019-05-10T00:12:06.764Z,1000.85
2019-05-10T00:13:06.751Z,1000.88
2019-05-10T00:14:06.740Z,1000.77
2019-05-10T00:15:06.748Z,1000.83
2019-05-10T00:16:06.739Z,1000.88
2019-05-10T00:17:06.705Z,1000.90
2019-05-10T00:18:06.697Z,1000.95
2019-05-10T00:19:06.692Z,1000.88
2019-05-10T00:20:06.696Z,1000.89
2019-05-10T00:21:06.663Z,1000.86
2019-05-10T00:22:06.654Z,1000.86
2019-05-10T00:23:06.640Z,1000.94
2019-05-10T00:24:06.699Z,1000.96
2019-05-10T00:25:06.653Z,1000.92
2019-05-10T00:26:06.607Z,1000.91
2019-05-10T00:27:06.600Z,1000.85
2019-05-10T00:28:06.590Z,1000.91
2019-05-10T00:29:06.578Z,1000.96
2019-05-10T00:30:06.565Z,1000.89
2019-05-10T00:31:06.578Z,1000.89
2019-05-10T00:32:06.548Z,1000.86
2019-05-10T00:33:06.532Z,1000.88
2019-05-10T00:34:06.527Z,1000.87
2019-05-10T00:35:06.515Z,1000.86
2019-05-10T00:36:06.542Z,1000.91
2019-05-10T00:37:06.501Z,1000.90
2019-05-10T00:38:06.479Z,1000.88
2019-05-10T00:39:06.469Z,1000.83
2019-05-10T00:40:06.469Z,1000.84
2019-05-10T00:41:06.469Z,1000.81
2019-05-10T00:42:06.472Z,1000.87
2019-05-10T00:43:06.434Z,1000.88
2019-05-10T00:44:06.421Z,1000.84
2019-05-10T00:45:06.409Z,1000.84
2019-05-10T00:46:06.433Z,1000.88
2019-05-10T00:47:06.382Z,1000.89
2019-05-10T00:48:06.371Z,1000.92
2019-05-10T00:49:06.361Z,1000.91
2019-05-10T00:50:06.350Z,1000.92
2019-05-10T00:51:06.338Z,1000.95
2019-05-10T00:52:06.349Z,1000.97
2019-05-10T00:53:06.317Z,1000.96
2019-05-10T00:54:06.323Z,1000.99
2019-05-10T00:55:18.321Z,1000.99
2019-05-10T00:56:07.287Z,1001.01
2019-05-10T00:57:06.298Z,1000.96
2019-05-10T00:58:06.267Z,1001.00
2019-05-10T00:59:06.252Z,1000.96
2019-05-10T01:00:06.250Z,1001.02
2019-05-10T01:01:06.230Z,1001.06
2019-05-10T01:02:06.237Z,1001.04
2019-05-10T01:03:06.215Z,1001.04
2019-05-10T01:04:06.202Z,1001.04
2019-05-10T01:05:06.204Z,1001.06
2019-05-10T01:06:06.178Z,1001.06
2019-05-10T01:07:06.198Z,1000.99
2019-05-10T01:08:06.161Z,1001.04
2019-05-10T01:09:06.155Z,1001.02
2019-05-10T01:10:06.137Z,1001.07
2019-05-10T01:11:06.124Z,1001.00
2019-05-10T01:12:06.143Z,1000.95
2019-05-10T01:13:06.106Z,1001.06
2019-05-10T01:14:06.103Z,1001.05
2019-05-10T01:15:06.086Z,1001.06
2019-05-10T01:16:06.078Z,1001.08
2019-05-10T01:17:06.059Z,1001.09
2019-05-10T01:18:06.083Z,1001.10
2019-05-10T01:19:06.037Z,1001.06
2019-05-10T01:20:06.029Z,1001.08
2019-05-10T01:21:06.017Z,1001.07
2019-05-10T01:22:06.005Z,1001.13
2019-05-10T01:23:06.023Z,1001.11
2019-05-10T01:24:05.985Z,1001.12
2019-05-10T01:25:05.998Z,1001.10
2019-05-10T01:26:05.964Z,1001.10
2019-05-10T01:27:05.963Z,1001.16
2019-05-10T01:28:06.011Z,1001.12
2019-05-10T01:29:05.930Z,1001.14
2019-05-10T01:30:05.927Z,1001.14
2019-05-10T01:31:05.910Z,1001.13
2019-05-10T01:32:05.905Z,1001.14
2019-05-10T01:33:05.907Z,1001.10
2019-05-10T01:34:05.876Z,1001.18
2019-05-10T01:35:05.869Z,1001.12
2019-05-10T01:36:05.867Z,1001.13
2019-05-10T01:37:05.846Z,1001.13
2019-05-10T01:38:05.860Z,1001.15
2019-05-10T01:39:05.825Z,1001.15
2019-05-10T01:40:05.814Z,1001.12
2019-05-10T01:41:05.802Z,1001.09
2019-05-10T01:42:05.793Z,1001.10
2019-05-10T01:43:05.804Z,1001.13
2019-05-10T01:44:05.769Z,1001.17
2019-05-10T01:45:05.763Z,1001.12
2019-05-10T01:46:05.744Z,1001.11
2019-05-10T01:47:05.740Z,1001.17
2019-05-10T01:48:05.725Z,1001.13
2019-05-10T01:49:05.741Z,1001.11
2019-05-10T01:50:05.712Z,1001.12
2019-05-10T01:51:05.693Z,1001.15
2019-05-10T01:52:05.686Z,1001.18
2019-05-10T01:53:05.671Z,1001.19
2019-05-10T01:54:05.691Z,1001.19
2019-05-10T01:55:05.654Z,1001.19
2019-05-10T01:56:05.638Z,1001.11
2019-05-10T01:57:05.636Z,1001.17
2019-05-10T01:58:05.619Z,1001.15
2019-05-10T01:59:05.647Z,1001.11
2019-05-10T02:00:05.593Z,1001.15
2019-05-10T02:01:05.584Z,1001.19
2019-05-10T02:02:05.573Z,1001.15
2019-05-10T02:03:05.570Z,1001.15
2019-05-10T02:04:05.573Z,1001.16
2019-05-10T02:05:05.541Z,1001.22
2019-05-10T02:06:05.528Z,1001.26
2019-05-10T02:07:05.523Z,1001.18
2019-05-10T02:08:05.508Z,1001.23
2019-05-10T02:09:05.520Z,1001.24
2019-05-10T02:10:05.493Z,1001.19
2019-05-10T02:11:05.474Z,1001.23
2019-05-10T02:12:05.463Z,1001.21
2019-05-10T02:13:05.452Z,1001.22
2019-05-10T02:14:05.443Z,1001.22
2019-05-10T02:15:05.454Z,1001.20
2019-05-10T02:16:05.430Z,1001.25
2019-05-10T02:17:05.411Z,1001.19
2019-05-10T02:18:05.476Z,1001.27
2019-05-10T02:19:05.388Z,1001.27
2019-05-10T02:20:05.398Z,1001.19
2019-05-10T02:21:05.366Z,1001.23
2019-05-10T02:22:05.356Z,1001.27
2019-05-10T02:23:05.344Z,1001.22
2019-05-10T02:24:05.365Z,1001.21
2019-05-10T02:25:05.331Z,1001.21
2019-05-10T02:26:09.358Z,1001.21
2019-05-10T02:27:05.303Z,1001.23
2019-05-10T02:28:05.290Z,1001.26
2019-05-10T02:29:05.280Z,1001.27
2019-05-10T02:30:05.305Z,1001.25
2019-05-10T02:31:05.266Z,1001.22
2019-05-10T02:32:05.247Z,1001.18
2019-05-10T02:33:05.242Z,1001.23
2019-05-10T02:34:05.237Z,1001.22
2019-05-10T02:35:05.237Z,1001.25
2019-05-10T02:36:05.208Z,1001.22
2019-05-10T02:37:05.197Z,1001.18
2019-05-10T02:38:05.183Z,1001.27
2019-05-10T02:39:05.174Z,1001.23
2019-05-10T02:40:05.191Z,1001.27
2019-05-10T02:41:05.150Z,1001.22
2019-05-10T02:42:05.145Z,1001.24
2019-05-10T02:43:05.133Z,1001.13
2019-05-10T02:44:05.121Z,1001.26
2019-05-10T02:45:05.135Z,1001.24
2019-05-10T02:46:05.096Z,1001.23
2019-05-10T02:47:05.091Z,1001.27
2019-05-10T02:48:05.078Z,1001.28
2019-05-10T02:49:05.065Z,1001.28
2019-05-10T02:50:05.074Z,1001.33
2019-05-10T02:51:05.065Z,1001.31
2019-05-10T02:52:05.034Z,1001.34
2019-05-10T02:53:05.022Z,1001.34
2019-05-10T02:54:05.010Z,1001.29
2019-05-10T02:55:05.020Z,1001.35
2019-05-10T02:56:04.997Z,1001.31
2019-05-10T02:57:04.983Z,1001.34
2019-05-10T02:58:04.968Z,1001.28
2019-05-10T02:59:04.955Z,1001.27
2019-05-10T03:00:04.971Z,1001.35
2019-05-10T03:01:04.990Z,1001.34
2019-05-10T03:02:04.925Z,1001.32
2019-05-10T03:03:04.912Z,1001.39
2019-05-10T03:04:04.907Z,1001.38
2019-05-10T03:05:04.910Z,1001.41
2019-05-10T03:06:04.881Z,1001.43
2019-05-10T03:07:04.869Z,1001.47
2019-05-10T03:08:04.860Z,1001.44
2019-05-10T03:09:04.848Z,1001.52
2019-05-10T03:10:04.866Z,1001.51
2019-05-10T03:11:04.832Z,1001.54
2019-05-10T03:12:04.817Z,1001.56
2019-05-10T03:13:04.811Z,1001.63
2019-05-10T03:14:04.799Z,1001.64
2019-05-10T03:15:04.805Z,1001.59
2019-05-10T03:16:04.773Z,1001.63
2019-05-10T03:17:04.763Z,1001.64
2019-05-10T03:18:04.753Z,1001.74
2019-05-10T03:19:04.742Z,1001.68
2019-05-10T03:20:04.748Z,1001.72
2019-05-10T03:21:04.721Z,1001.70
2019-05-10T03:22:04.712Z,1001.77
2019-05-10T03:23:04.721Z,1001.69
2019-05-10T03:24:04.691Z,1001.72
2019-05-10T03:25:04.702Z,1001.82
2019-05-10T03:26:04.670Z,1001.84
2019-05-10T03:27:04.671Z,1001.82
2019-05-10T03:28:04.645Z,1001.79
2019-05-10T03:29:04.641Z,1001.78
2019-05-10T03:30:04.623Z,1001.86
2019-05-10T03:31:04.649Z,1001.87
2019-05-10T03:32:04.608Z,1001.89
2019-05-10T03:33:04.592Z,1001.88
2019-05-10T03:34:04.591Z,1001.91
2019-05-10T03:35:04.579Z,1001.87
2019-05-10T03:36:04.592Z,1001.90
2019-05-10T03:37:04.550Z,1001.88
2019-05-10T03:38:04.535Z,1001.91
2019-05-10T03:39:04.526Z,1001.95
2019-05-10T03:40:04.514Z,1001.90
2019-05-10T03:41:04.531Z,1001.97
2019-05-10T03:42:04.494Z,1001.94
2019-05-10T03:43:04.484Z,1001.94
2019-05-10T03:44:04.472Z,1001.98
2019-05-10T03:45:04.472Z,1002.00
2019-05-10T03:46:04.472Z,1002.00
2019-05-10T03:47:04.439Z,1002.01
2019-05-10T03:48:04.432Z,1002.03
2019-05-10T03:49:04.419Z,1002.03
2019-05-10T03:50:04.412Z,1002.05
2019-05-10T03:51:04.419Z,1002.01
2019-05-10T03:52:04.390Z,1002.06
2019-05-10T03:53:04.377Z,1002.05
2019-05-10T03:54:04.367Z,1001.99
2019-05-10T03:55:04.355Z,1002.04
2019-05-10T03:56:04.360Z,1002.03
2019-05-10T03:57:12.839Z,1001.97
2019-05-10T03:58:05.319Z,1002.12
2019-05-10T03:59:04.313Z,1002.09
2019-05-10T04:00:04.321Z,1002.06
2019-05-10T04:01:04.289Z,1002.09
2019-05-10T04:02:04.286Z,1002.11
2019-05-10T04:03:04.273Z,1002.11
2019-05-10T04:04:04.317Z,1002.08
2019-05-10T04:05:04.272Z,1002.12
2019-05-10T04:06:04.251Z,1002.16
2019-05-10T04:07:04.243Z,1002.12
2019-05-10T04:08:04.226Z,1002.15
2019-05-10T04:09:04.202Z,1002.13
2019-05-10T04:10:04.198Z,1002.10
2019-05-10T04:11:04.281Z,1002.16
2019-05-10T04:12:04.189Z,1002.16
2019-05-10T04:13:04.160Z,1002.11
2019-05-10T04:14:04.193Z,1002.14
2019-05-10T04:15:04.147Z,1002.19
2019-05-10T04:16:04.150Z,1002.23
2019-05-10T04:17:04.129Z,1002.21
2019-05-10T04:18:04.108Z,1002.26
2019-05-10T04:19:04.097Z,1002.24
2019-05-10T04:20:04.086Z,1002.29
2019-05-10T04:21:04.097Z,1002.27
2019-05-10T04:22:04.064Z,1002.33
2019-05-10T04:23:04.082Z,1002.29
2019-05-10T04:24:04.160Z,1002.37
2019-05-10T04:25:04.047Z,1002.36
2019-05-10T04:26:04.042Z,1002.36
2019-05-10T04:27:04.013Z,1002.41
2019-05-10T04:28:03.999Z,1002.38
2019-05-10T04:29:04.052Z,1002.43
2019-05-10T04:30:03.988Z,1002.48
2019-05-10T04:31:04.006Z,1002.48
2019-05-10T04:32:03.961Z,1002.49
2019-05-10T04:33:03.960Z,1002.44
2019-05-10T04:34:04.698Z,1002.53
2019-05-10T04:35:03.927Z,1002.48
2019-05-10T04:36:03.934Z,1002.51
2019-05-10T04:37:03.901Z,1002.50
2019-05-10T04:38:03.890Z,1002.54
2019-05-10T04:39:03.898Z,1002.50
2019-05-10T04:40:03.881Z,1002.66
2019-05-10T04:41:03.881Z,1002.62
2019-05-10T04:42:03.846Z,1002.64
2019-05-10T04:43:03.836Z,1002.62
2019-05-10T04:44:03.837Z,1002.67
2019-05-10T04:45:03.819Z,1002.66
2019-05-10T04:46:03.808Z,1002.59
2019-05-10T04:47:03.817Z,1002.59
2019-05-10T04:48:03.792Z,1002.56
2019-05-10T04:49:03.777Z,1002.58
2019-05-10T04:50:03.767Z,1002.62
2019-05-10T04:51:03.773Z,1002.64
2019-05-10T04:52:03.738Z,1002.70
2019-05-10T04:53:03.738Z,1002.68
2019-05-10T04:54:03.718Z,1002.70
2019-05-10T04:55:03.705Z,1002.67
2019-05-10T04:56:03.752Z,1002.76
2019-05-10T04:57:03.699Z,1002.75
2019-05-10T04:58:03.674Z,1002.74
2019-05-10T04:59:03.667Z,1002.74
2019-05-10T05:00:03.651Z,1002.76
2019-05-10T05:01:03.645Z,1002.79
2019-05-10T05:02:03.700Z,1002.78
2019-05-10T05:03:03.623Z,1002.83
2019-05-10T05:04:03.611Z,1002.84
2019-05-10T05:05:03.603Z,1002.85
2019-05-10T05:06:03.589Z,1002.85
2019-05-10T05:07:03.644Z,1002.85
2019-05-10T05:08:06.266Z,1002.90
2019-05-10T05:09:03.561Z,1002.94
2019-05-10T05:10:03.549Z,1002.88
2019-05-10T05:11:03.533Z,1002.91
2019-05-10T05:12:03.545Z,1002.88
2019-05-10T05:13:03.511Z,1002.89
2019-05-10T05:14:03.504Z,1002.94
2019-05-10T05:15:03.498Z,1002.97
2019-05-10T05:16:03.482Z,1002.92
2019-05-10T05:17:03.470Z,1003.01
2019-05-10T05:18:03.480Z,1002.95
2019-05-10T05:19:03.446Z,1002.95
2019-05-10T05:20:03.446Z,1002.96
2019-05-10T05:21:03.425Z,1002.95
2019-05-10T05:22:03.417Z,1002.98
2019-05-10T05:23:03.421Z,1002.97
2019-05-10T05:24:03.394Z,1003.01
2019-05-10T05:25:03.808Z,1003.03
2019-05-10T05:26:03.370Z,1003.00
2019-05-10T05:27:03.360Z,1003.00
2019-05-10T05:28:07.905Z,1003.01
2019-05-10T05:29:04.339Z,1003.06
2019-05-10T05:30:03.336Z,1003.10
2019-05-10T05:31:03.342Z,1003.07
2019-05-10T05:32:03.693Z,1003.06
2019-05-10T05:33:03.314Z,1003.14
2019-05-10T05:34:04.791Z,1003.14
2019-05-10T05:35:03.274Z,1003.15
2019-05-10T05:36:03.264Z,1003.14
2019-05-10T05:37:03.258Z,1003.16
2019-05-10T05:38:03.261Z,1003.14
2019-05-10T05:39:03.244Z,1003.20
2019-05-10T05:40:03.221Z,1003.23
2019-05-10T05:41:03.213Z,1003.18
2019-05-10T05:42:03.200Z,1003.22
2019-05-10T05:43:08.311Z,1003.18
2019-05-10T05:44:04.182Z,1003.28
2019-05-10T05:45:03.170Z,1003.28
2019-05-10T05:46:03.159Z,1003.31
2019-05-10T05:47:04.776Z,1003.26
2019-05-10T05:48:03.156Z,1003.26
2019-05-10T05:49:03.129Z,1003.28
2019-05-10T05:50:03.189Z,1003.32
2019-05-10T05:51:03.110Z,1003.28
2019-05-10T05:52:03.098Z,1003.33
2019-05-10T05:53:03.101Z,1003.32
2019-05-10T05:54:04.206Z,1003.30
2019-05-10T05:55:03.066Z,1003.34
2019-05-10T05:56:11.997Z,1003.36
2019-05-10T05:57:04.037Z,1003.39
2019-05-10T05:58:04.870Z,1003.40
2019-05-10T05:59:03.017Z,1003.38
2019-05-10T06:00:04.162Z,1003.44
2019-05-10T06:01:02.996Z,1003.46
2019-05-10T06:02:07.455Z,1003.50
2019-05-10T06:03:04.013Z,1003.46
2019-05-10T06:04:06.490Z,1003.50
2019-05-10T06:05:03.959Z,1003.45
2019-05-10T06:06:15.340Z,1003.48
2019-05-10T06:07:03.939Z,1003.54
2019-05-10T06:08:02.978Z,1003.54
2019-05-10T06:09:02.930Z,1003.62
2019-05-10T06:10:02.900Z,1003.52
2019-05-10T06:11:02.885Z,1003.61
2019-05-10T06:12:07.603Z,1003.62
2019-05-10T06:13:03.894Z,1003.65
2019-05-10T06:14:10.390Z,1003.60
2019-05-10T06:15:03.842Z,1003.66
2019-05-10T06:16:06.424Z,1003.63
2019-05-10T06:17:03.820Z,1003.64
2019-05-10T06:18:03.723Z,1003.65
2019-05-10T06:19:03.800Z,1003.66
2019-05-10T06:20:05.991Z,1003.68
2019-05-10T06:21:02.777Z,1003.68
2019-05-10T06:22:04.609Z,1003.76
2019-05-10T06:23:07.078Z,1003.74
2019-05-10T06:24:07.465Z,1003.75
2019-05-10T06:25:03.765Z,1003.80
2019-05-10T06:26:02.724Z,1003.83
2019-05-10T06:27:03.353Z,1003.82
2019-05-10T06:28:02.702Z,1003.80
2019-05-10T06:29:04.737Z,1003.87
2019-05-10T06:30:02.681Z,1003.86
2019-05-10T06:31:02.670Z,1003.89
2019-05-10T06:32:02.663Z,1003.89
2019-05-10T06:33:11.871Z,1003.92
2019-05-10T06:34:03.669Z,1003.94
2019-05-10T06:35:02.637Z,1003.88
2019-05-10T06:36:02.616Z,1003.92
2019-05-10T06:37:02.616Z,1003.93
2019-05-10T06:38:02.597Z,1003.98
2019-05-10T06:39:02.602Z,1003.97
2019-05-10T06:40:02.576Z,1003.96
2019-05-10T06:41:02.565Z,1003.98
2019-05-10T06:42:02.552Z,1004.03
2019-05-10T06:43:06.943Z,1003.98
2019-05-10T06:44:03.548Z,1004.02
2019-05-10T06:45:05.002Z,1004.02
2019-05-10T06:46:03.511Z,1004.01
2019-05-10T06:47:08.177Z,1004.04
2019-05-10T06:48:03.486Z,1004.03
2019-05-10T06:49:08.456Z,1004.04
2019-05-10T06:50:03.464Z,1004.04
2019-05-10T06:51:08.797Z,1004.08
2019-05-10T06:52:03.447Z,1004.11
2019-05-10T06:53:07.340Z,1004.13
2019-05-10T06:54:03.446Z,1004.08
2019-05-10T06:55:02.419Z,1004.17
2019-05-10T06:56:02.400Z,1004.13
2019-05-10T06:57:02.393Z,1004.14
2019-05-10T06:58:02.381Z,1004.19
2019-05-10T06:59:12.995Z,1004.15
2019-05-10T07:00:06.473Z,1004.23
2019-05-10T07:01:02.379Z,1004.18
2019-05-10T07:02:02.338Z,1004.19
2019-05-10T07:03:02.328Z,1004.20
2019-05-10T07:04:02.338Z,1004.21
2019-05-10T07:05:02.305Z,1004.24
2019-05-10T07:06:02.295Z,1004.27
2019-05-10T07:07:02.282Z,1004.28
2019-05-10T07:08:13.907Z,1004.29
2019-05-10T07:09:03.277Z,1004.35
2019-05-10T07:10:12.389Z,1004.35
2019-05-10T07:12:15.410Z,1004.42
2019-05-10T07:13:13.067Z,1004.43
2019-05-10T07:14:13.019Z,1004.43
2019-05-10T07:15:12.993Z,1004.48
2019-05-10T07:16:15.042Z,1004.50
2019-05-10T07:17:13.970Z,1004.54
2019-05-10T07:18:16.832Z,1004.45
2019-05-10T07:19:13.970Z,1004.50
2019-05-10T07:20:12.934Z,1004.57
2019-05-10T07:21:12.956Z,1004.58
2019-05-10T07:22:12.917Z,1004.58
2019-05-10T07:23:12.907Z,1004.53
2019-05-10T07:24:18.341Z,1004.56
2019-05-10T07:25:13.887Z,1004.56
2019-05-10T07:26:17.383Z,1004.56
2019-05-10T07:27:13.858Z,1004.59
2019-05-10T07:28:15.908Z,1004.58
2019-05-10T07:29:28.730Z,1004.60
2019-05-10T07:30:13.851Z,1004.61
2019-05-10T07:31:12.866Z,1004.62
2019-05-10T07:32:16.345Z,1004.67
2019-05-10T07:33:13.830Z,1004.68
2019-05-10T07:34:15.569Z,1004.71
2019-05-10T07:35:12.823Z,1004.75
2019-05-10T07:36:15.120Z,1004.81
2019-05-10T07:37:12.766Z,1004.84
2019-05-10T07:38:12.755Z,1004.89
2019-05-10T07:39:12.733Z,1004.80
2019-05-10T07:40:12.790Z,1004.87
2019-05-10T07:41:12.716Z,1004.89
2019-05-10T07:42:12.707Z,1004.89
2019-05-10T07:43:22.391Z,1004.85
2019-05-10T07:44:13.683Z,1004.87
2019-05-10T07:45:12.716Z,1004.87
2019-05-10T07:46:12.670Z,1004.92
2019-05-10T07:47:12.653Z,1004.91
2019-05-10T07:48:12.682Z,1004.94
2019-05-10T07:49:12.632Z,1004.92
2019-05-10T07:50:12.640Z,1005.02
2019-05-10T07:51:12.610Z,1004.99
2019-05-10T07:52:12.604Z,1005.06
2019-05-10T07:53:16.439Z,1005.05
2019-05-10T07:54:13.643Z,1005.02
2019-05-10T07:55:18.505Z,1005.05
2019-05-10T07:56:13.599Z,1005.05
2019-05-10T07:57:12.543Z,1005.07
2019-05-10T07:58:12.534Z,1005.09
2019-05-10T07:59:16.291Z,1005.06
2019-05-10T08:00:13.554Z,1005.10
2019-05-10T08:01:12.507Z,1005.11
2019-05-10T08:02:14.546Z,1005.15
2019-05-10T08:03:17.505Z,1005.13
2019-05-10T08:04:13.492Z,1005.12
2019-05-10T08:05:13.796Z,1005.24
2019-05-10T08:06:15.317Z,1005.19
2019-05-10T08:07:12.436Z,1005.19
2019-05-10T08:08:12.430Z,1005.17
2019-05-10T08:09:12.423Z,1005.17
2019-05-10T08:10:12.487Z,1005.18
2019-05-10T08:11:14.244Z,1005.17
2019-05-10T08:12:12.889Z,1005.22
2019-05-10T08:13:15.434Z,1005.23
2019-05-10T08:14:13.397Z,1005.21
2019-05-10T08:15:12.356Z,1005.27
2019-05-10T08:16:19.620Z,1005.28
2019-05-10T08:17:13.340Z,1005.29
2019-05-10T08:18:15.285Z,1005.33
2019-05-10T08:19:13.309Z,1005.29
2019-05-10T08:20:20.324Z,1005.30
2019-05-10T08:21:21.734Z,1005.34
2019-05-10T08:22:14.921Z,1005.32
2019-05-10T08:23:13.069Z,1005.38
2019-05-10T08:24:14.414Z,1005.31
2019-05-10T08:25:15.127Z,1005.36
2019-05-10T08:26:19.773Z,1005.41
2019-05-10T08:27:14.891Z,1005.34
2019-05-10T08:28:12.759Z,1005.34
2019-05-10T08:29:13.575Z,1005.41
2019-05-10T08:30:28.008Z,1005.46
2019-05-10T08:31:13.237Z,1005.45
2019-05-10T08:32:12.819Z,1005.45
2019-05-10T08:33:14.394Z,1005.51
2019-05-10T08:34:12.159Z,1005.53
2019-05-10T08:35:17.149Z,1005.52
2019-05-10T08:36:13.130Z,1005.53
2019-05-10T08:37:12.808Z,1005.53
2019-05-10T08:38:12.941Z,1005.51
2019-05-10T08:39:14.046Z,1005.54
2019-05-10T08:40:12.772Z,1005.57
2019-05-10T08:41:14.845Z,1005.51
2019-05-10T08:42:30.326Z,1005.52
2019-05-10T08:43:16.682Z,1005.60
2019-05-10T08:44:19.324Z,1005.57
2019-05-10T08:45:13.158Z,1005.64
2019-05-10T08:46:12.234Z,1005.67
2019-05-10T08:47:16.135Z,1005.69
2019-05-10T08:48:13.001Z,1005.67
2019-05-10T08:49:13.008Z,1005.66
2019-05-10T08:50:29.157Z,1005.66
2019-05-10T08:51:12.978Z,1005.65
2019-05-10T08:52:12.287Z,1005.71
2019-05-10T08:53:16.342Z,1005.69
2019-05-10T08:54:12.215Z,1005.72
2019-05-10T08:55:12.516Z,1005.68
2019-05-10T08:56:15.927Z,1005.68
2019-05-10T08:57:18.537Z,1005.67
2019-05-10T08:58:12.898Z,1005.72
2019-05-10T08:59:15.866Z,1005.71
2019-05-10T09:00:13.221Z,1005.72
2019-05-10T09:01:24.018Z,1005.77
2019-05-10T09:02:14.669Z,1005.75
2019-05-10T09:03:18.396Z,1005.82
2019-05-10T09:04:13.750Z,1005.77
2019-05-10T09:05:12.597Z,1005.78
2019-05-10T09:06:16.692Z,1005.78
2019-05-10T09:07:12.836Z,1005.87
2019-05-10T09:08:19.554Z,1005.81
2019-05-10T09:09:12.781Z,1005.80
2019-05-10T09:10:12.885Z,1005.86
2019-05-10T09:11:11.775Z,1005.87
2019-05-10T09:12:12.453Z,1005.91
2019-05-10T09:13:12.846Z,1005.94
2019-05-10T09:14:19.822Z,1005.91
2019-05-10T09:15:13.445Z,1005.96
2019-05-10T09:16:13.649Z,1005.94
2019-05-10T09:17:17.174Z,1005.97
2019-05-10T09:18:12.955Z,1005.94
2019-05-10T09:19:12.461Z,1005.96
2019-05-10T09:20:20.478Z,1005.99
2019-05-10T09:21:14.338Z,1005.98
2019-05-10T09:22:12.454Z,1006.06
2019-05-10T09:23:17.875Z,1006.09
2019-05-10T09:24:12.881Z,1006.08
2019-05-10T09:25:12.891Z,1006.07
2019-05-10T09:26:19.203Z,1006.13
2019-05-10T09:27:12.883Z,1006.12
2019-05-10T09:28:16.658Z,1006.15
2019-05-10T09:29:12.586Z,1006.11
2019-05-10T09:30:14.045Z,1006.18
2019-05-10T09:31:20.783Z,1006.19
2019-05-10T09:32:12.679Z,1006.22
2019-05-10T09:33:14.347Z,1006.24
2019-05-10T09:34:12.236Z,1006.26
2019-05-10T09:35:12.714Z,1006.22
2019-05-10T09:36:12.462Z,1006.29
2019-05-10T09:37:16.117Z,1006.32
2019-05-10T09:38:12.737Z,1006.35
2019-05-10T09:39:17.702Z,1006.41
2019-05-10T09:40:13.157Z,1006.45
2019-05-10T09:41:11.962Z,1006.43
2019-05-10T09:42:24.871Z,1006.39
2019-05-10T09:43:14.802Z,1006.44
2019-05-10T09:44:13.039Z,1006.44
2019-05-10T09:45:12.804Z,1006.44
2019-05-10T09:46:13.893Z,1006.48
2019-05-10T09:47:12.053Z,1006.48
2019-05-10T09:48:12.109Z,1006.49
2019-05-10T09:49:15.664Z,1006.55
2019-05-10T09:50:12.778Z,1006.59
2019-05-10T09:51:13.757Z,1006.60
2019-05-10T09:52:20.262Z,1006.61
2019-05-10T09:53:13.621Z,1006.61
2019-05-10T09:54:11.312Z,1006.61
2019-05-10T09:55:18.946Z,1006.64
2019-05-10T09:56:11.325Z,1006.63
2019-05-10T09:57:11.300Z,1006.66
2019-05-10T09:58:11.266Z,1006.61
2019-05-10T09:59:11.262Z,1006.65
2019-05-10T10:00:18.941Z,1006.64
2019-05-10T10:01:17.978Z,1006.68
2019-05-10T10:02:16.497Z,1006.67
2019-05-10T10:03:13.008Z,1006.63
2019-05-10T10:04:11.195Z,1006.73
2019-05-10T10:05:11.188Z,1006.68
2019-05-10T10:06:11.569Z,1006.64
2019-05-10T10:07:11.182Z,1006.62
2019-05-10T10:08:11.298Z,1006.68
2019-05-10T10:09:11.356Z,1006.67
2019-05-10T10:10:12.852Z,1006.68
2019-05-10T10:11:15.652Z,1006.69
2019-05-10T10:12:12.133Z,1006.67
2019-05-10T10:13:14.094Z,1006.68
2019-05-10T10:14:11.115Z,1006.71
2019-05-10T10:15:18.647Z,1006.73
2019-05-10T10:16:14.797Z,1006.73
2019-05-10T10:17:11.059Z,1006.76
2019-05-10T10:18:12.481Z,1006.74
2019-05-10T10:19:12.041Z,1006.76
2019-05-10T10:20:11.027Z,1006.69
2019-05-10T10:21:13.194Z,1006.74
2019-05-10T10:22:13.144Z,1006.76
2019-05-10T10:23:11.025Z,1006.73
2019-05-10T10:24:15.496Z,1006.71
2019-05-10T10:25:11.967Z,1006.74
2019-05-10T10:26:12.577Z,1006.73
2019-05-10T10:27:11.950Z,1006.73
2019-05-10T10:28:16.851Z,1006.71
2019-05-10T10:29:11.936Z,1006.81
2019-05-10T10:30:14.973Z,1006.73
2019-05-10T10:31:25.992Z,1006.76
2019-05-10T10:32:11.900Z,1006.75
2019-05-10T10:33:13.711Z,1006.70
2019-05-10T10:34:11.902Z,1006.74
2019-05-10T10:35:13.197Z,1006.69
2019-05-10T10:36:11.861Z,1006.70
2019-05-10T10:37:14.746Z,1006.71
2019-05-10T10:38:11.834Z,1006.71
2019-05-10T10:39:10.862Z,1006.75
2019-05-10T10:40:10.816Z,1006.72
2019-05-10T10:41:10.805Z,1006.75
2019-05-10T10:42:13.053Z,1006.72
2019-05-10T10:43:10.781Z,1006.72
2019-05-10T10:44:10.854Z,1006.75
2019-05-10T10:45:10.765Z,1006.75
2019-05-10T10:46:12.395Z,1006.83
2019-05-10T10:47:10.737Z,1006.79
2019-05-10T10:48:12.767Z,1006.77
2019-05-10T10:49:14.213Z,1006.76
2019-05-10T10:50:13.486Z,1006.83
2019-05-10T10:51:10.703Z,1006.82
2019-05-10T10:52:13.282Z,1006.80
2019-05-10T10:53:10.679Z,1006.79
2019-05-10T10:54:10.691Z,1006.76
2019-05-10T10:55:11.922Z,1006.77
2019-05-10T10:56:10.649Z,1006.76
2019-05-10T10:57:10.627Z,1006.76
2019-05-10T10:58:10.621Z,1006.74
2019-05-10T10:59:10.640Z,1006.80
2019-05-10T11:00:10.610Z,1006.78
2019-05-10T11:01:19.909Z,1006.81
2019-05-10T11:02:33.650Z,1006.78
2019-05-10T11:03:11.566Z,1006.81
2019-05-10T11:04:10.560Z,1006.81
2019-05-10T11:05:10.577Z,1006.81
2019-05-10T11:06:10.536Z,1006.80
2019-05-10T11:07:11.256Z,1006.83
2019-05-10T11:08:11.151Z,1006.84
2019-05-10T11:09:10.504Z,1006.82
2019-05-10T11:10:17.868Z,1006.85
2019-05-10T11:11:11.522Z,1006.89
2019-05-10T11:12:14.789Z,1006.84
2019-05-10T11:13:18.757Z,1006.80
2019-05-10T11:14:11.447Z,1006.87
2019-05-10T11:15:11.442Z,1006.86
2019-05-10T11:16:15.466Z,1006.89
2019-05-10T11:17:11.418Z,1006.91
2019-05-10T11:18:10.412Z,1006.89
2019-05-10T11:19:15.281Z,1006.86
2019-05-10T11:20:11.738Z,1006.87
2019-05-10T11:21:11.306Z,1006.89
2019-05-10T11:22:10.957Z,1006.87
2019-05-10T11:23:10.813Z,1006.85
2019-05-10T11:24:18.168Z,1006.87
2019-05-10T11:25:12.895Z,1006.84
2019-05-10T11:26:10.954Z,1006.82
2019-05-10T11:27:15.176Z,1006.83
2019-05-10T11:28:12.028Z,1006.81
2019-05-10T11:29:13.961Z,1006.82
2019-05-10T11:30:12.165Z,1006.85
2019-05-10T11:31:11.338Z,1006.85
2019-05-10T11:32:15.857Z,1006.87
2019-05-10T11:33:25.802Z,1006.85
2019-05-10T11:34:11.243Z,1006.86
2019-05-10T11:35:12.084Z,1006.85
2019-05-10T11:36:11.557Z,1006.78
2019-05-10T11:37:10.215Z,1006.84
2019-05-10T11:38:17.747Z,1006.89
2019-05-10T11:39:24.820Z,1006.88
2019-05-10T11:40:27.751Z,1006.90
2019-05-10T11:41:13.534Z,1006.94
2019-05-10T11:42:11.875Z,1006.94
2019-05-10T11:43:23.865Z,1006.91
2019-05-10T11:44:12.042Z,1006.95
2019-05-10T11:45:11.125Z,1006.90
2019-05-10T11:46:11.709Z,1006.92
2019-05-10T11:47:23.408Z,1006.90
2019-05-10T11:48:11.105Z,1006.91
2019-05-10T11:49:10.617Z,1006.95
2019-05-10T11:50:10.652Z,1006.94
2019-05-10T11:51:12.436Z,1006.91
2019-05-10T11:52:13.223Z,1006.83
2019-05-10T11:53:13.238Z,1006.89
2019-05-10T11:54:11.259Z,1006.86
2019-05-10T11:55:11.430Z,1006.88
2019-05-10T11:56:14.040Z,1006.88
2019-05-10T11:57:13.826Z,1006.88
2019-05-10T11:58:12.968Z,1006.88
2019-05-10T11:59:12.351Z,1006.91
2019-05-10T12:00:24.460Z,1006.86
2019-05-10T12:02:33.813Z,1006.94
2019-05-10T12:04:28.131Z,1006.92
2019-05-10T12:05:17.749Z,1006.90
2019-05-10T12:06:12.126Z,1006.90
2019-05-10T12:07:12.849Z,1006.85
2019-05-10T12:08:12.985Z,1006.82